Time;durP1;ratioP1;P1;durP2;ratioP2;P2;SDS_P1;SDS_P2;PMS_P1;PMS_P2;Temp;Humidity;BMP_temperature;BMP_pressure;BME280_temperature;BME280_humidity;BME280_pressure;Samples;Min_cycle;Max_cycle;Signal;HPM_P1;HPM_P2
2021/12/27 00:01:19;;;;;;;5.78;2.80;;;19.10;47.80;;;;;;4499505;31;20147;-69
2021/12/27 00:03:49;;;;;;;4.13;2.47;;;19.10;47.90;;;;;;4499414;31;20131;-69
2021/12/27 00:06:16;;;;;;;5.82;2.97;;;19.10;48.00;;;;;;4485716;31;20147;-69
2021/12/27 00:08:43;;;;;;;5.15;3.00;;;19.00;48.00;;;;;;4485670;31;20577;-69
2021/12/27 00:11:10;;;;;;;4.03;2.55;;;19.00;48.00;;;;;;4498585;31;20120;-69
2021/12/27 00:13:36;;;;;;;5.75;2.83;;;19.00;48.10;;;;;;4498081;31;20309;-69
2021/12/27 00:16:09;;;;;;;4.07;2.30;;;19.00;48.10;;;;;;4486848;31;20143;-70
2021/12/27 00:18:36;;;;;;;4.57;2.58;;;18.90;48.10;;;;;;4484742;31;20136;-69
2021/12/27 00:21:03;;;;;;;3.78;2.53;;;18.90;49.10;;;;;;4499187;31;20152;-69
2021/12/27 00:23:29;;;;;;;4.57;2.80;;;18.90;48.10;;;;;;4484973;31;20121;-69
2021/12/27 00:25:55;;;;;;;5.80;2.65;;;18.90;48.20;;;;;;4498872;31;20159;-69
2021/12/27 00:28:21;;;;;;;4.47;2.90;;;18.90;48.30;;;;;;4498520;31;20128;-69
2021/12/27 00:30:47;;;;;;;4.60;2.60;;;18.90;48.30;;;;;;4498417;31;20278;-69
2021/12/27 00:33:14;;;;;;;3.78;2.47;;;18.80;48.20;;;;;;4486044;31;20135;-69
2021/12/27 00:35:41;;;;;;;6.90;2.58;;;18.80;48.30;;;;;;4484816;31;20210;-69
2021/12/27 00:38:08;;;;;;;6.00;2.33;;;18.80;48.30;;;;;;4499122;31;20139;-69
2021/12/27 00:40:34;;;;;;;4.18;2.80;;;18.70;48.20;;;;;;4497852;31;20266;-69
2021/12/27 00:43:00;;;;;;;3.85;2.40;;;18.80;48.30;;;;;;4485782;31;20124;-69
2021/12/27 00:45:26;;;;;;;4.28;2.63;;;18.70;48.20;;;;;;4498417;31;20147;-69
2021/12/27 00:47:54;;;;;;;4.55;2.60;;;18.70;48.30;;;;;;4485014;31;20647;-69
2021/12/27 00:50:20;;;;;;;3.38;2.58;;;18.70;48.30;;;;;;4485887;31;20262;-69
2021/12/27 00:52:46;;;;;;;3.88;2.70;;;18.70;48.30;;;;;;4498972;31;20198;-69
2021/12/27 00:55:15;;;;;;;4.32;2.67;;;18.70;48.40;;;;;;4486056;31;20191;-69
2021/12/27 00:57:41;;;;;;;4.63;2.75;;;18.60;48.30;;;;;;4497754;31;20140;-68
2021/12/27 01:00:13;;;;;;;5.88;2.60;;;18.60;48.40;;;;;;4498775;31;20131;-70
2021/12/27 01:02:40;;;;;;;4.35;2.47;;;18.60;48.30;;;;;;4498247;31;20147;-70
2021/12/27 01:05:09;;;;;;;3.47;2.38;;;18.60;48.40;;;;;;4483524;32;20239;-69
2021/12/27 01:07:36;;;;;;;4.75;2.50;;;18.50;48.30;;;;;;4497185;31;20582;-69
2021/12/27 01:10:49;;;;;;;4.35;2.72;;;18.50;48.30;;;;;;4482267;31;20139;-69
2021/12/27 01:15:35;;;;;;;3.38;2.40;;;18.50;48.30;;;;;;4496705;31;20186;-69
2021/12/27 01:18:02;;;;;;;4.30;2.72;;;18.50;48.30;;;;;;4500134;31;20245;-69
2021/12/27 01:20:28;;;;;;;4.25;2.30;;;18.40;48.30;;;;;;4483282;31;20565;-69
2021/12/27 01:22:55;;;;;;;3.83;2.65;;;18.40;48.30;;;;;;4496405;31;20263;-69
2021/12/27 01:25:22;;;;;;;4.13;2.40;;;18.40;48.40;;;;;;4496481;31;20140;-69
2021/12/27 01:27:48;;;;;;;4.03;2.35;;;18.40;48.30;;;;;;4481887;31;20121;-69
2021/12/27 01:30:16;;;;;;;3.03;2.30;;;18.40;48.30;;;;;;4496205;31;20120;-69
2021/12/27 01:32:49;;;;;;;4.57;2.88;;;18.40;48.30;;;;;;4496335;31;20164;-69
2021/12/27 01:35:22;;;;;;;3.60;2.40;;;18.30;48.30;;;;;;4483681;31;20532;-69
2021/12/27 01:37:51;;;;;;;5.13;2.60;;;18.30;48.30;;;;;;4482468;31;20139;-69
2021/12/27 01:40:20;;;;;;;3.53;2.58;;;18.30;48.30;;;;;;4494984;31;20144;-69
2021/12/27 01:43:11;;;;;;;4.93;2.42;;;18.30;48.30;;;;;;4495541;31;20132;-69
2021/12/27 01:45:45;;;;;;;5.43;2.50;;;18.30;48.20;;;;;;4495297;31;20254;-69
2021/12/27 01:48:12;;;;;;;4.70;2.65;;;18.30;48.30;;;;;;4495218;31;20144;-69
2021/12/27 01:50:41;;;;;;;4.90;2.97;;;18.30;48.30;;;;;;4482561;31;20138;-69
2021/12/27 01:53:08;;;;;;;3.05;2.15;;;18.20;48.30;;;;;;4494815;31;20136;-69
2021/12/27 01:55:35;;;;;;;3.13;2.47;;;18.20;48.30;;;;;;4482907;31;20144;-70
2021/12/27 01:58:03;;;;;;;3.85;2.72;;;18.20;48.30;;;;;;4481503;31;20136;-69
2021/12/27 02:00:29;;;;;;;3.15;2.45;;;18.20;48.30;;;;;;4494989;31;20228;-69
2021/12/27 02:02:55;;;;;;;3.47;2.58;;;18.20;48.40;;;;;;4481952;31;20307;-69
2021/12/27 02:05:21;;;;;;;3.65;2.80;;;18.20;48.30;;;;;;4481808;31;20147;-69
2021/12/27 02:07:47;;;;;;;2.63;2.05;;;18.10;48.20;;;;;;4482179;31;20574;-69
2021/12/27 02:10:13;;;;;;;6.22;2.90;;;18.10;48.20;;;;;;4494316;31;20119;-69
2021/12/27 02:12:40;;;;;;;4.28;2.65;;;18.10;48.30;;;;;;4482022;31;20180;-69
2021/12/27 02:15:09;;;;;;;3.22;2.47;;;18.10;48.30;;;;;;4495288;31;20140;-68
2021/12/27 02:17:39;;;;;;;3.08;2.42;;;18.10;48.30;;;;;;4494221;31;20139;-69
2021/12/27 02:20:09;;;;;;;5.10;2.75;;;18.10;48.30;;;;;;4495052;31;20580;-69
2021/12/27 02:22:36;;;;;;;3.22;2.60;;;18.00;48.30;;;;;;4494378;31;20117;-69
2021/12/27 02:25:05;;;;;;;3.72;2.40;;;18.00;48.30;;;;;;4494919;31;20209;-70
2021/12/27 02:27:31;;;;;;;3.40;2.70;;;18.00;48.30;;;;;;4494383;31;20133;-68
2021/12/27 02:29:57;;;;;;;4.03;2.97;;;18.00;48.30;;;;;;4494638;31;20606;-68
2021/12/27 02:32:23;;;;;;;4.50;2.40;;;18.00;48.30;;;;;;4481429;31;20120;-69
2021/12/27 02:34:49;;;;;;;2.55;2.35;;;18.00;48.30;;;;;;4468030;31;20223;-69
2021/12/27 02:37:16;;;;;;;3.38;2.45;;;17.90;48.30;;;;;;4494722;31;20140;-69
2021/12/27 02:39:45;;;;;;;3.63;2.70;;;17.90;48.30;;;;;;4481039;31;20121;-69
2021/12/27 02:42:19;;;;;;;5.13;3.20;;;17.90;48.20;;;;;;4495108;31;20669;-69
2021/12/27 02:44:46;;;;;;;3.10;2.40;;;17.90;48.30;;;;;;4493857;31;20182;-69
2021/12/27 02:47:14;;;;;;;3.80;2.67;;;17.90;48.30;;;;;;4494655;31;20120;-69
2021/12/27 02:49:40;;;;;;;4.00;2.63;;;17.90;48.30;;;;;;4494414;31;20183;-69
2021/12/27 02:52:08;;;;;;;3.75;2.50;;;17.90;48.30;;;;;;4493967;31;20132;-69
2021/12/27 02:54:34;;;;;;;4.07;2.55;;;17.80;48.20;;;;;;4481291;31;20128;-69
2021/12/27 02:57:00;;;;;;;5.47;2.67;;;17.80;48.20;;;;;;4480476;31;20121;-69
2021/12/27 02:59:26;;;;;;;3.75;2.78;;;17.80;48.20;;;;;;4481598;31;20156;-69
2021/12/27 03:01:52;;;;;;;4.43;2.90;;;17.80;48.30;;;;;;4493433;31;20179;-69
2021/12/27 03:04:18;;;;;;;3.53;2.70;;;17.80;48.30;;;;;;4494389;31;20294;-69
2021/12/27 03:06:44;;;;;;;3.67;2.88;;;17.80;48.30;;;;;;4480803;31;20140;-69
2021/12/27 03:09:10;;;;;;;4.90;2.78;;;17.80;48.30;;;;;;4493815;31;20156;-69
2021/12/27 03:11:35;;;;;;;4.03;2.45;;;17.70;48.30;;;;;;4495352;31;20125;-69
2021/12/27 03:14:02;;;;;;;4.28;2.72;;;17.70;48.30;;;;;;4493204;31;20117;-68
2021/12/27 03:16:28;;;;;;;3.90;2.72;;;17.70;48.30;;;;;;4481454;31;20294;-69
2021/12/27 03:18:55;;;;;;;3.58;2.33;;;17.70;48.30;;;;;;4480335;31;20135;-69
2021/12/27 03:21:21;;;;;;;4.60;2.85;;;17.70;48.30;;;;;;4494334;31;20121;-69
2021/12/27 03:23:48;;;;;;;3.55;2.70;;;17.70;48.30;;;;;;4493913;31;20143;-69
2021/12/27 03:26:15;;;;;;;3.63;2.72;;;17.70;48.40;;;;;;4494819;31;20135;-69
2021/12/27 03:28:42;;;;;;;4.13;2.72;;;17.60;48.30;;;;;;4480683;31;20306;-69
2021/12/27 03:31:09;;;;;;;3.97;2.80;;;17.60;48.30;;;;;;4494349;31;20135;-69
2021/12/27 03:33:37;;;;;;;2.83;2.33;;;17.60;48.30;;;;;;4481111;31;20149;-69
2021/12/27 03:36:06;;;;;;;4.38;3.05;;;17.60;48.30;;;;;;4480311;31;20144;-68
2021/12/27 03:38:37;;;;;;;3.58;2.53;;;17.60;48.40;;;;;;4495186;31;20148;-69
2021/12/27 03:41:07;;;;;;;3.67;2.78;;;17.60;48.40;;;;;;4494659;31;20156;-69
2021/12/27 03:43:33;;;;;;;4.25;3.13;;;17.60;48.40;;;;;;4493373;31;20230;-69
2021/12/27 03:45:59;;;;;;;3.70;2.58;;;17.60;48.40;;;;;;4493739;31;20676;-69
2021/12/27 03:48:25;;;;;;;3.40;2.70;;;17.50;48.30;;;;;;4493105;31;20116;-69
2021/12/27 03:50:52;;;;;;;3.30;2.70;;;17.50;48.30;;;;;;4481062;31;20294;-69
2021/12/27 03:53:19;;;;;;;4.28;2.78;;;17.50;48.30;;;;;;4492919;31;20185;-69
2021/12/27 03:55:44;;;;;;;3.67;2.53;;;17.50;48.40;;;;;;4480596;32;20263;-69
2021/12/27 03:58:24;;;;;;;3.38;2.80;;;17.50;48.30;;;;;;4494314;32;20271;-68
2021/12/27 04:03:21;;;;;;;4.18;2.95;;;17.50;48.30;;;;;;4495154;32;20139;-69
2021/12/27 04:05:48;;;;;;;4.70;2.80;;;17.40;48.30;;;;;;4479892;32;20143;-69
2021/12/27 04:08:16;;;;;;;4.13;3.05;;;17.40;48.30;;;;;;4480690;32;20133;-69
2021/12/27 04:10:42;;;;;;;3.75;2.63;;;17.40;48.30;;;;;;4480133;32;20198;-68
2021/12/27 04:13:11;;;;;;;3.35;2.47;;;17.40;48.30;;;;;;4480129;32;20132;-69
2021/12/27 04:15:38;;;;;;;5.25;2.97;;;17.40;48.30;;;;;;4494658;31;20120;-69
2021/12/27 04:18:09;;;;;;;3.97;2.75;;;17.40;48.40;;;;;;4479719;32;20128;-69
2021/12/27 04:20:35;;;;;;;3.50;2.58;;;17.40;48.40;;;;;;4493928;32;20144;-68
2021/12/27 04:23:01;;;;;;;4.85;3.08;;;17.30;48.30;;;;;;4492547;32;20237;-69
2021/12/27 04:25:27;;;;;;;4.38;3.05;;;17.30;48.30;;;;;;4494024;32;20259;-68
2021/12/27 04:27:53;;;;;;;3.63;2.75;;;17.30;48.30;;;;;;4479988;32;20105;-69
2021/12/27 04:30:20;;;;;;;4.72;2.60;;;17.30;48.30;;;;;;4492940;32;20193;-68
2021/12/27 04:32:49;;;;;;;3.58;2.63;;;17.30;48.30;;;;;;4467289;32;20184;-69
2021/12/27 04:35:16;;;;;;;4.03;2.78;;;17.30;48.30;;;;;;4492899;32;20137;-69
2021/12/27 04:37:42;;;;;;;4.90;2.88;;;17.30;48.30;;;;;;4493706;32;20205;-69
2021/12/27 04:40:12;;;;;;;3.72;2.85;;;17.30;48.20;;;;;;4493990;31;20269;-68
2021/12/27 04:42:41;;;;;;;4.32;2.70;;;17.20;48.20;;;;;;4497651;31;20254;-69
2021/12/27 04:45:07;;;;;;;3.70;2.92;;;17.20;48.30;;;;;;4495610;31;20249;-69
2021/12/27 04:47:34;;;;;;;4.55;2.88;;;17.20;48.20;;;;;;4496187;31;20147;-69
2021/12/27 04:50:00;;;;;;;3.30;2.75;;;17.20;48.30;;;;;;4497455;31;20613;-68
2021/12/27 04:52:26;;;;;;;3.75;2.72;;;17.20;48.30;;;;;;4482281;31;20237;-69
2021/12/27 04:54:52;;;;;;;3.65;2.70;;;17.20;48.30;;;;;;4483449;31;20528;-68
2021/12/27 04:57:18;;;;;;;4.38;2.95;;;17.20;48.30;;;;;;4482235;31;20121;-69
2021/12/27 04:59:44;;;;;;;3.85;2.95;;;17.20;48.30;;;;;;4483328;31;20270;-69
2021/12/27 05:02:10;;;;;;;2.85;2.55;;;17.20;48.30;;;;;;4495344;31;20151;-68
2021/12/27 05:04:36;;;;;;;3.95;2.58;;;17.10;48.20;;;;;;4495942;31;20137;-68
2021/12/27 05:07:02;;;;;;;4.15;2.90;;;17.10;48.20;;;;;;4483006;31;20138;-68
2021/12/27 05:09:28;;;;;;;4.43;3.35;;;17.10;48.30;;;;;;4495309;31;20140;-68
2021/12/27 05:11:54;;;;;;;4.25;3.00;;;17.10;48.30;;;;;;4496247;31;20262;-69
2021/12/27 05:14:20;;;;;;;3.78;2.58;;;17.10;48.30;;;;;;4496005;31;20245;-68
2021/12/27 05:16:47;;;;;;;3.38;2.38;;;17.10;48.30;;;;;;4496250;31;20129;-68
2021/12/27 05:19:15;;;;;;;4.18;3.10;;;17.10;48.30;;;;;;4495029;31;20152;-68
2021/12/27 05:21:41;;;;;;;3.35;2.75;;;17.10;48.30;;;;;;4495677;31;20130;-69
2021/12/27 05:24:07;;;;;;;3.90;2.83;;;17.10;48.30;;;;;;4482256;31;20278;-68
2021/12/27 05:26:33;;;;;;;3.65;2.90;;;17.10;48.30;;;;;;4482243;31;20129;-68
2021/12/27 05:28:59;;;;;;;4.35;2.88;;;17.00;48.30;;;;;;4482813;31;20133;-68
2021/12/27 05:31:25;;;;;;;4.03;2.92;;;17.00;48.30;;;;;;4481817;31;20121;-69
2021/12/27 05:33:51;;;;;;;3.47;2.78;;;17.00;48.30;;;;;;4482697;31;20182;-68
2021/12/27 05:36:17;;;;;;;4.55;3.22;;;17.00;48.30;;;;;;4495038;31;20121;-68
2021/12/27 05:38:43;;;;;;;3.55;2.85;;;17.00;48.30;;;;;;4482406;31;20610;-68
2021/12/27 05:41:10;;;;;;;4.43;2.95;;;16.90;48.20;;;;;;4496268;31;20136;-68
2021/12/27 05:43:36;;;;;;;5.05;3.22;;;16.90;48.30;;;;;;4482023;31;20139;-68
2021/12/27 05:46:02;;;;;;;3.55;2.80;;;16.90;48.30;;;;;;4496740;31;20144;-68
2021/12/27 05:48:28;;;;;;;4.03;2.97;;;17.00;48.40;;;;;;4468390;31;20124;-68
2021/12/27 05:50:54;;;;;;;4.30;3.25;;;16.90;48.30;;;;;;4495347;31;20313;-69
2021/12/27 05:53:20;;;;;;;4.18;3.10;;;16.90;48.30;;;;;;4481157;31;20148;-68
2021/12/27 05:55:46;;;;;;;4.35;2.90;;;16.90;48.30;;;;;;4482147;31;20132;-69
2021/12/27 05:58:12;;;;;;;3.90;3.20;;;16.90;48.30;;;;;;4495873;31;20297;-68
2021/12/27 06:00:39;;;;;;;3.97;2.95;;;16.90;48.30;;;;;;4481834;31;20183;-69
2021/12/27 06:03:05;;;;;;;4.88;3.22;;;16.90;48.40;;;;;;4495420;31;20145;-68
2021/12/27 06:05:31;;;;;;;4.78;2.90;;;16.90;48.40;;;;;;4495390;31;20214;-68
2021/12/27 06:07:57;;;;;;;3.92;2.90;;;16.80;48.40;;;;;;4482558;31;20140;-69
2021/12/27 06:10:23;;;;;;;3.70;3.10;;;16.80;48.40;;;;;;4494344;31;20116;-68
2021/12/27 06:12:50;;;;;;;3.70;2.85;;;16.80;48.40;;;;;;4481837;31;20155;-68
2021/12/27 06:15:16;;;;;;;4.28;2.95;;;16.80;48.40;;;;;;4495596;31;20146;-68
2021/12/27 06:17:42;;;;;;;3.72;2.83;;;16.80;48.50;;;;;;4481435;31;20133;-68
2021/12/27 06:20:12;;;;;;;4.93;2.90;;;16.80;48.50;;;;;;4495171;31;20144;-69
2021/12/27 06:22:41;;;;;;;3.58;2.90;;;16.80;48.50;;;;;;4494138;31;20564;-68
2021/12/27 06:25:07;;;;;;;4.78;3.00;;;16.80;48.60;;;;;;4495046;31;20133;-68
2021/12/27 06:27:33;;;;;;;4.30;3.20;;;16.80;48.60;;;;;;4480893;31;20194;-68
2021/12/27 06:30:01;;;;;;;4.38;3.00;;;16.70;48.50;;;;;;4481597;31;20148;-68
2021/12/27 06:32:26;;;;;;;4.68;3.30;;;16.70;48.50;;;;;;4494558;31;20190;-68
2021/12/27 06:34:52;;;;;;;3.97;3.08;;;16.70;48.50;;;;;;4468020;31;20239;-68
2021/12/27 06:37:19;;;;;;;3.33;2.70;;;16.70;48.50;;;;;;4494507;31;20125;-68
2021/12/27 06:39:45;;;;;;;4.50;3.50;;;16.70;48.60;;;;;;4493974;31;20147;-68
2021/12/27 06:42:13;;;;;;;3.58;2.92;;;16.70;48.60;;;;;;4495140;31;20150;-68
2021/12/27 06:44:39;;;;;;;3.50;3.00;;;16.70;48.60;;;;;;4493863;31;20152;-68
2021/12/27 06:47:05;;;;;;;4.35;3.28;;;16.70;48.60;;;;;;4481633;31;20325;-68
2021/12/27 06:49:35;;;;;;;3.83;3.03;;;16.70;48.60;;;;;;4480952;31;20136;-68
2021/12/27 06:52:01;;;;;;;3.70;3.00;;;16.70;48.60;;;;;;4494077;31;20154;-69
2021/12/27 06:54:27;;;;;;;3.30;2.95;;;16.60;48.60;;;;;;4481290;31;20171;-69
2021/12/27 06:56:54;;;;;;;4.45;3.33;;;16.60;48.60;;;;;;4493952;31;20137;-68
2021/12/27 06:59:20;;;;;;;4.40;3.17;;;16.60;48.60;;;;;;4468248;31;20512;-68
2021/12/27 07:01:46;;;;;;;3.95;3.17;;;16.60;48.70;;;;;;4493652;31;20269;-68
2021/12/27 07:04:12;;;;;;;4.82;3.45;;;16.60;48.70;;;;;;4493605;31;20512;-69
2021/12/27 07:06:38;;;;;;;4.40;3.50;;;16.60;48.70;;;;;;4480691;31;20179;-69
2021/12/27 07:09:05;;;;;;;4.55;3.22;;;16.60;48.70;;;;;;4493940;31;20138;-68
2021/12/27 07:11:32;;;;;;;5.05;3.42;;;16.60;48.80;;;;;;4481273;31;20294;-68
2021/12/27 07:13:58;;;;;;;4.18;3.13;;;16.60;48.80;;;;;;4493429;31;20140;-68
2021/12/27 07:16:26;;;;;;;4.22;2.88;;;16.60;49.70;;;;;;4481061;31;20113;-68
2021/12/27 07:18:53;;;;;;;4.75;3.35;;;16.50;48.90;;;;;;4493577;31;20146;-68
2021/12/27 07:21:19;;;;;;;4.07;3.20;;;16.60;48.90;;;;;;4481192;31;20109;-69
2021/12/27 07:23:45;;;;;;;3.72;3.17;;;16.60;48.90;;;;;;4493495;31;20135;-68
2021/12/27 07:26:11;;;;;;;3.97;3.13;;;16.60;48.90;;;;;;4480363;31;20136;-69
2021/12/27 07:28:37;;;;;;;5.25;3.10;;;16.60;48.90;;;;;;4480931;31;20226;-68
2021/12/27 07:31:04;;;;;;;4.05;2.78;;;16.60;48.90;;;;;;4480306;31;20129;-69
2021/12/27 07:33:30;;;;;;;4.07;3.00;;;16.60;48.80;;;;;;4481102;31;20143;-68
2021/12/27 07:35:56;;;;;;;4.70;3.30;;;16.60;48.70;;;;;;4467125;31;20133;-68
2021/12/27 07:38:22;;;;;;;3.67;2.60;;;16.70;48.80;;;;;;4494220;31;20140;-69
2021/12/27 07:40:47;;;;;;;4.10;2.85;;;16.70;48.70;;;;;;4480084;31;20179;-68
2021/12/27 07:43:14;;;;;;;3.95;2.60;;;16.70;48.60;;;;;;4493556;31;20270;-68
2021/12/27 07:45:40;;;;;;;3.88;2.97;;;16.80;48.60;;;;;;4480645;31;20123;-69
2021/12/27 07:48:07;;;;;;;3.50;2.55;;;16.80;48.50;;;;;;4493245;31;20128;-69
2021/12/27 07:50:34;;;;;;;4.13;2.72;;;16.80;48.40;;;;;;4480966;31;20587;-68
2021/12/27 07:53:01;;;;;;;5.05;2.65;;;16.80;48.40;;;;;;4493166;31;20365;-68
2021/12/27 07:55:28;;;;;;;3.33;2.58;;;16.80;48.30;;;;;;4493862;31;20225;-69
2021/12/27 07:57:58;;;;;;;3.45;2.40;;;16.90;48.30;;;;;;4480273;32;20128;-69
2021/12/27 08:00:24;;;;;;;3.95;3.05;;;16.90;48.30;;;;;;4480344;32;20475;-68
2021/12/27 08:02:51;;;;;;;3.92;2.78;;;16.90;48.20;;;;;;4494627;32;20198;-69
2021/12/27 08:05:17;;;;;;;4.95;3.28;;;16.90;48.10;;;;;;4493302;32;20270;-68
2021/12/27 08:07:43;;;;;;;4.32;2.63;;;16.90;48.10;;;;;;4480856;32;20101;-68
2021/12/27 08:10:11;;;;;;;4.38;2.90;;;16.90;48.00;;;;;;4479990;32;20554;-68
2021/12/27 08:12:38;;;;;;;3.40;2.65;;;16.90;48.00;;;;;;4480482;32;20120;-68
2021/12/27 08:15:06;;;;;;;3.90;2.78;;;17.00;48.10;;;;;;4481341;31;20172;-68
2021/12/27 08:17:32;;;;;;;3.67;2.60;;;17.00;48.10;;;;;;4483311;31;20368;-68
2021/12/27 08:19:59;;;;;;;3.42;2.65;;;17.00;48.00;;;;;;4497947;31;20214;-68
2021/12/27 08:22:25;;;;;;;3.53;2.85;;;17.00;48.90;;;;;;4483181;31;20727;-65
2021/12/27 08:24:51;;;;;;;6.47;4.63;;;17.00;48.10;;;;;;4496872;31;20265;-65
2021/12/27 08:27:19;;;;;;;8.55;5.82;;;17.10;47.80;;;;;;4495975;31;20201;-65
2021/12/27 08:29:45;;;;;;;15.50;5.95;;;17.20;46.60;;;;;;4496419;31;20139;-67
2021/12/27 08:32:11;;;;;;;9.45;4.68;;;17.30;45.90;;;;;;4497052;31;20149;-67
2021/12/27 08:34:37;;;;;;;8.77;4.43;;;17.40;45.60;;;;;;4482731;31;20132;-68
2021/12/27 08:37:03;;;;;;;6.30;4.25;;;17.50;45.70;;;;;;4496533;31;20139;-67
2021/12/27 08:39:29;;;;;;;5.45;3.72;;;17.60;45.80;;;;;;4482906;31;20135;-66
2021/12/27 08:41:55;;;;;;;7.22;3.83;;;17.70;45.90;;;;;;4483462;31;20125;-66
2021/12/27 08:44:22;;;;;;;7.70;3.72;;;17.80;45.90;;;;;;4482848;31;20235;-67
2021/12/27 08:46:49;;;;;;;6.50;3.65;;;17.90;45.80;;;;;;4496275;31;20278;-68
2021/12/27 08:49:14;;;;;;;6.07;3.38;;;18.00;45.80;;;;;;4482611;31;20133;-67
2021/12/27 08:51:40;;;;;;;7.93;3.65;;;18.10;45.60;;;;;;4496853;31;20112;-67
2021/12/27 08:54:07;;;;;;;5.97;3.63;;;18.20;45.50;;;;;;4496129;31;20235;-68
2021/12/27 08:56:33;;;;;;;4.57;3.08;;;18.40;45.40;;;;;;4495636;31;20104;-68
2021/12/27 08:58:59;;;;;;;5.88;3.35;;;18.50;45.10;;;;;;4496347;31;20128;-63
2021/12/27 09:01:26;;;;;;;4.35;3.03;;;18.60;45.00;;;;;;4495553;31;20151;-68
2021/12/27 09:03:52;;;;;;;4.90;3.17;;;18.70;44.80;;;;;;4496040;31;20125;-68
2021/12/27 09:06:18;;;;;;;5.75;2.78;;;18.80;44.70;;;;;;4482638;31;20120;-70
2021/12/27 09:08:44;;;;;;;7.22;3.42;;;18.90;44.60;;;;;;4495747;31;20182;-68
2021/12/27 09:11:09;;;;;;;4.20;2.67;;;19.00;44.50;;;;;;4482907;31;20139;-68
2021/12/27 09:13:38;;;;;;;7.97;3.20;;;19.10;44.30;;;;;;4482242;31;20151;-67
2021/12/27 09:16:07;;;;;;;5.32;2.95;;;19.20;44.20;;;;;;4496254;31;20128;-67
2021/12/27 09:18:35;;;;;;;4.50;2.70;;;19.30;44.20;;;;;;4495190;31;20194;-68
2021/12/27 09:21:01;;;;;;;6.25;3.05;;;19.40;44.00;;;;;;4482701;31;20144;-67
2021/12/27 09:23:27;;;;;;;5.35;2.83;;;19.50;43.90;;;;;;4496333;31;20144;-67
2021/12/27 09:25:53;;;;;;;4.40;3.08;;;19.60;43.80;;;;;;4494757;31;20206;-69
2021/12/27 09:28:19;;;;;;;4.15;2.80;;;19.70;43.70;;;;;;4495498;31;20197;-68
2021/12/27 09:30:45;;;;;;;3.40;2.40;;;19.70;43.60;;;;;;4481533;31;20132;-68
2021/12/27 09:33:11;;;;;;;3.83;2.78;;;19.80;43.50;;;;;;4496110;31;20144;-68
2021/12/27 09:35:38;;;;;;;3.58;2.50;;;19.90;43.50;;;;;;4481771;31;20644;-67
2021/12/27 09:38:05;;;;;;;4.22;2.72;;;20.00;43.40;;;;;;4482760;31;20121;-67
2021/12/27 09:40:31;;;;;;;5.90;3.30;;;20.00;43.20;;;;;;4495160;31;20435;-67
2021/12/27 09:42:57;;;;;;;3.63;2.63;;;20.10;43.20;;;;;;4481888;31;20263;-67
2021/12/27 09:45:24;;;;;;;6.43;3.20;;;20.10;43.10;;;;;;4482595;31;20206;-67
2021/12/27 09:47:51;;;;;;;5.63;3.40;;;20.10;43.00;;;;;;4481500;31;20144;-67
2021/12/27 09:50:43;;;;;;;5.40;3.40;;;20.10;43.00;;;;;;4495752;31;20132;-68
2021/12/27 09:53:10;;;;;;;3.95;2.80;;;20.10;42.90;;;;;;4494695;31;20270;-67
2021/12/27 09:55:36;;;;;;;4.75;3.20;;;20.20;42.90;;;;;;4496653;31;20603;-67
2021/12/27 09:58:02;;;;;;;4.30;2.60;;;20.20;42.80;;;;;;4495091;31;20258;-67
2021/12/27 10:00:29;;;;;;;5.53;3.10;;;20.20;42.70;;;;;;4495969;31;20140;-67
2021/12/27 10:02:57;;;;;;;5.03;2.78;;;20.30;42.70;;;;;;4495118;31;20134;-67
2021/12/27 10:05:26;;;;;;;4.00;2.92;;;20.40;42.70;;;;;;4494712;31;20124;-66
2021/12/27 10:07:52;;;;;;;5.03;2.88;;;20.50;42.80;;;;;;4495214;31;20109;-68
2021/12/27 10:10:18;;;;;;;6.47;3.30;;;20.50;42.70;;;;;;4494654;31;20135;-67
2021/12/27 10:12:46;;;;;;;4.63;2.60;;;20.60;42.80;;;;;;4481905;31;20141;-67
2021/12/27 10:15:18;;;;;;;4.65;2.92;;;20.70;42.90;;;;;;4494608;31;20210;-68
2021/12/27 10:17:45;;;;;;;5.22;3.38;;;20.70;43.80;;;;;;4495785;31;20117;-67
2021/12/27 10:20:19;;;;;;;9.70;2.72;;;20.80;42.90;;;;;;4494887;31;20132;-68
2021/12/27 10:22:48;;;;;;;;;;;20.80;42.90;;;;;;4494662;31;20306;-64
2021/12/27 10:25:19;;;;;;;6.45;3.50;;;20.80;42.90;;;;;;4495707;31;20159;-68
2021/12/27 10:27:47;;;;;;;6.22;2.92;;;20.90;42.80;;;;;;4493995;31;20128;-66
2021/12/27 10:30:20;;;;;;;6.13;3.38;;;20.90;42.80;;;;;;4493677;31;20209;-68
2021/12/27 10:33:15;;;;;;;6.95;3.10;;;21.00;42.80;;;;;;4494657;31;20131;-67
2021/12/27 10:35:57;;;;;;;5.63;3.10;;;21.00;42.80;;;;;;4494054;31;20124;-71
2021/12/27 10:38:26;;;;;;;7.80;3.30;;;21.10;42.80;;;;;;4494314;31;21062;-67
2021/12/27 10:40:56;;;;;;;6.00;2.60;;;21.10;42.70;;;;;;4495867;31;20136;-65
2021/12/27 10:43:45;;;;;;;4.47;2.97;;;21.10;42.70;;;;;;4494208;31;20540;-66
2021/12/27 10:46:18;;;;;;;4.43;2.90;;;21.20;42.80;;;;;;4494620;31;20285;-66
2021/12/27 10:48:46;;;;;;;6.65;3.00;;;21.20;42.70;;;;;;4493894;31;20148;-65
2021/12/27 10:51:13;;;;;;;5.20;2.83;;;21.20;42.60;;;;;;4494663;31;20490;-65
2021/12/27 10:54:08;;;;;;;5.47;2.92;;;21.20;42.60;;;;;;4481185;31;20136;-66
2021/12/27 10:56:51;;;;;;;5.85;2.78;;;21.30;42.60;;;;;;4491003;31;20191;-66
2021/12/27 10:59:19;;;;;;;6.95;3.40;;;21.30;42.60;;;;;;4495595;31;20128;-71
2021/12/27 11:01:50;;;;;;;4.07;2.72;;;21.30;42.50;;;;;;4493843;31;20121;-71
2021/12/27 11:04:18;;;;;;;8.05;2.42;;;21.30;42.40;;;;;;4493705;31;20124;-71
2021/12/27 11:06:44;;;;;;;5.07;2.50;;;21.30;42.50;;;;;;4494740;31;20170;-72
2021/12/27 11:09:14;;;;;;;3.72;2.80;;;21.30;42.60;;;;;;4483467;31;20128;-68
2021/12/27 11:11:41;;;;;;;4.53;2.60;;;21.40;42.70;;;;;;4495287;31;20139;-70
2021/12/27 11:14:07;;;;;;;4.72;2.70;;;21.40;42.80;;;;;;4494445;31;20698;-70
2021/12/27 11:16:33;;;;;;;4.57;2.63;;;21.40;42.70;;;;;;4500016;31;20183;-69
2021/12/27 11:19:00;;;;;;;5.65;2.60;;;21.40;42.70;;;;;;4493103;31;20194;-68
2021/12/27 11:21:33;;;;;;;4.70;2.65;;;21.50;42.70;;;;;;4487057;31;20136;-69
2021/12/27 11:24:00;;;;;;;3.58;2.38;;;21.50;42.70;;;;;;4492726;31;20155;-71
2021/12/27 11:26:32;;;;;;;5.15;2.90;;;21.50;42.70;;;;;;4490398;31;20606;-70
2021/12/27 11:29:14;;;;;;;3.80;2.38;;;21.60;42.80;;;;;;4494095;31;20125;-71
2021/12/27 11:31:42;;;;;;;6.90;3.10;;;21.60;42.70;;;;;;4503028;31;20146;-70
2021/12/27 11:34:12;;;;;;;4.57;2.50;;;21.60;42.70;;;;;;4495952;31;20664;-69
2021/12/27 11:36:42;;;;;;;3.97;2.65;;;21.60;42.70;;;;;;4504682;31;20139;-70
2021/12/27 11:39:17;;;;;;;4.88;2.78;;;21.60;42.70;;;;;;4505829;31;20686;-67
2021/12/27 11:41:43;;;;;;;4.18;2.63;;;21.60;42.60;;;;;;4495461;31;20132;-69
2021/12/27 11:44:20;;;;;;;4.93;2.70;;;21.70;42.70;;;;;;4479876;31;20583;-70
2021/12/27 11:46:51;;;;;;;3.72;2.60;;;21.70;42.70;;;;;;4500181;31;20179;-69
2021/12/27 11:49:45;;;;;;;5.18;2.90;;;21.70;42.60;;;;;;4507424;31;20372;-71
2021/12/27 11:52:30;;;;;;;6.28;2.85;;;21.80;42.70;;;;;;4508276;31;20156;-71
2021/12/27 11:55:21;;;;;;;5.70;3.70;;;21.80;42.50;;;;;;4509232;31;20136;-70
2021/12/27 11:57:52;;;;;;;7.63;4.47;;;21.90;42.20;;;;;;4491177;31;20129;-71
2021/12/27 12:00:20;;;;;;;8.38;5.00;;;21.90;41.70;;;;;;4493977;31;20147;-69
2021/12/27 12:02:49;;;;;;;7.57;4.60;;;21.90;41.30;;;;;;4494867;32;20139;-69
2021/12/27 12:05:34;;;;;;;8.63;5.05;;;21.80;41.00;;;;;;4482992;31;40009;-69
2021/12/27 12:07:59;;;;;;;8.10;4.95;;;21.80;41.20;;;;;;4494413;31;20266;-70
2021/12/27 12:10:26;;;;;;;13.77;4.82;;;21.70;41.30;;;;;;4492579;31;20152;-69
2021/12/27 12:13:14;;;;;;;11.48;4.82;;;21.60;41.50;;;;;;4479974;31;20136;-68
2021/12/27 12:16:02;;;;;;;9.35;5.28;;;21.60;41.70;;;;;;4494354;31;20112;-69
2021/12/27 12:18:30;;;;;;;7.53;4.80;;;21.40;41.60;;;;;;4492886;31;20136;-68
2021/12/27 12:20:56;;;;;;;7.70;4.38;;;21.30;41.80;;;;;;4486353;31;20133;-68
2021/12/27 12:23:22;;;;;;;10.95;4.47;;;21.30;42.20;;;;;;4479359;31;20188;-68
2021/12/27 12:26:00;;;;;;;7.45;4.20;;;21.20;42.40;;;;;;4491259;31;20124;-67
2021/12/27 12:28:27;;;;;;;8.60;4.50;;;21.20;42.70;;;;;;4502460;31;20203;-68
2021/12/27 12:30:53;;;;;;;7.97;4.47;;;21.10;42.90;;;;;;4466603;31;20481;-68
2021/12/27 12:33:29;;;;;;;10.43;4.45;;;21.10;43.00;;;;;;4470989;31;20559;-68
2021/12/27 12:36:04;;;;;;;8.80;4.35;;;21.10;43.10;;;;;;4494045;31;20537;-69
2021/12/27 12:38:36;;;;;;;10.85;4.13;;;21.10;43.20;;;;;;4493539;31;20137;-69
2021/12/27 12:41:11;;;;;;;7.80;4.22;;;21.10;43.10;;;;;;4491832;31;20188;-70
2021/12/27 12:43:43;;;;;;;6.32;3.92;;;21.20;43.10;;;;;;4494048;31;20142;-69
2021/12/27 12:46:23;;;;;;;7.43;3.83;;;21.20;44.00;;;;;;4493709;31;20658;-70
2021/12/27 12:49:22;;;;;;;10.18;4.15;;;21.20;43.10;;;;;;4503109;31;20210;-69
2021/12/27 12:52:02;;;;;;;8.40;4.07;;;21.30;43.00;;;;;;4474421;31;20145;-68
2021/12/27 12:54:33;;;;;;;8.45;4.10;;;21.40;42.90;;;;;;4506257;31;20136;-68
2021/12/27 12:57:07;;;;;;;8.80;4.32;;;21.50;42.70;;;;;;4492979;31;20165;-69
2021/12/27 12:59:41;;;;;;;6.30;4.07;;;21.60;42.70;;;;;;4493724;31;20194;-70